CDT,Max TemperatureF,Mean TemperatureF,Min TemperatureF,Max Dew PointF,MeanDew PointF,Min DewpointF,Max Humidity, Mean Humidity, Min Humidity, Max Sea Level PressureIn, Mean Sea Level PressureIn, Min Sea Level PressureIn, Max VisibilityMiles, Mean VisibilityMiles, Min VisibilityMiles, Max Wind SpeedMPH, Mean Wind SpeedMPH, Max Gust SpeedMPH,PrecipitationIn, CloudCover, Events, WindDirDegrees
2012-9-1,91,80,68,68,66,61,92,67,38,30.05,30.00,29.95,10,10,7,12,5,16,0.00,0,,29
2012-9-2,93,78,63,66,62,58,84,60,34,30.00,29.94,29.87,10,10,5,9,6,,0.00,0,,137
2012-9-3,86,78,70,72,69,66,89,75,59,29.98,29.91,29.86,10,10,10,14,6,,0.00,1,Rain,103
2012-9-4,99,83,67,70,66,58,94,64,29,29.90,29.83,29.73,10,9,4,13,5,17,0.00,0,,160
2012-9-5,86,76,66,60,52,41,73,46,23,29.96,29.87,29.73,10,10,7,20,9,28,0.00,0,,330
2012-9-6,90,72,55,64,49,43,72,44,21,30.01,29.91,29.78,10,10,5,17,8,24,0.00,0,,122
2012-9-7,77,69,59,65,54,43,83,64,35,30.12,29.97,29.76,10,10,10,23,12,30,0.01,1,Rain,330
2012-9-8,84,66,47,46,41,35,81,47,18,30.18,30.08,29.96,10,10,10,16,7,24,0.00,0,,292
2012-9-9,77,64,51,47,44,41,73,51,30,30.25,30.17,30.10,10,10,10,10,6,16,0.00,0,,15
2012-9-10,87,70,54,51,47,46,78,48,24,30.13,30.02,29.89,10,10,10,24,11,31,0.00,0,,167
2012-9-11,96,79,62,52,48,44,66,38,17,29.93,29.89,29.83,10,10,10,26,16,36,0.00,0,,171
2012-9-12,78,66,54,60,53,45,95,64,33,30.30,30.07,29.90,10,10,5,24,13,37,0.59,4,Rain-Thunderstorm,24
2012-9-13,69,60,50,53,48,41,94,73,36,30.43,30.36,30.29,10,10,10,17,6,23,0.10,3,Rain,24
2012-9-14,80,64,47,50,44,37,93,57,22,30.37,30.32,30.25,10,10,7,15,8,22,0.00,0,,193
2012-9-15,78,63,48,58,49,44,86,61,34,30.28,30.19,30.08,10,10,10,13,7,21,0.00,0,,174
2012-9-16,77,66,56,62,59,55,96,82,53,30.08,30.00,29.91,10,7,0,14,7,20,0.00,3,Fog,177
2012-9-17,67,59,51,61,50,36,96,74,33,30.07,29.99,29.91,10,8,0,21,8,30,0.11,4,Fog-Rain-Thunderstorm,2
2012-9-18,70,55,40,43,38,33,89,54,28,30.13,30.04,29.93,10,10,10,9,5,,0.00,0,,219
2012-9-19,89,70,51,50,41,31,81,44,17,30.01,29.87,29.79,10,10,10,21,11,30,0.00,0,,221
2012-9-20,71,60,50,45,37,28,60,42,23,30.07,30.01,29.95,10,10,7,10,6,18,0.00,0,,300
2012-9-21,75,64,54,46,37,29,62,40,19,29.93,29.88,29.82,10,10,5,24,9,33,0.00,0,,278
2012-9-22,63,52,41,36,29,24,59,41,23,30.30,30.20,29.95,10,10,7,18,9,24,0.00,0,,344
2012-9-23,68,52,37,35,31,26,79,47,25,30.35,30.27,30.20,10,10,7,9,4,,0.00,0,,91
2012-9-24,73,60,46,49,40,35,69,50,29,30.20,30.01,29.83,10,10,5,13,6,17,0.00,0,,158
2012-9-25,83,66,50,50,45,38,85,49,21,29.93,29.85,29.81,10,10,4,10,2,,0.00,0,,6
2012-9-26,78,64,51,42,34,23,60,36,14,30.16,30.05,29.91,10,9,4,13,9,16,0.00,0,,17
2012-9-27,76,59,43,37,27,15,68,33,11,30.23,30.17,30.12,10,10,5,9,5,,0.00,0,,24
2012-9-28,76,60,45,45,37,23,65,43,19,30.21,30.16,30.12,10,10,7,8,3,,0.00,0,,94
2012-9-29,79,64,50,47,41,33,75,45,19,30.19,30.12,30.05,10,10,10,7,2,,0.00,0,,169
2012-9-30,80,68,55,44,40,38,56,38,22,30.05,29.98,29.92,10,10,5,6,2,,0.00,0,,236